Time;durP1;ratioP1;P1;durP2;ratioP2;P2;SDS_P1;SDS_P2;PMS_P1;PMS_P2;Temp;Humidity;BMP_temperature;BMP_pressure;BME280_temperature;BME280_humidity;BME280_pressure;Samples;Min_cycle;Max_cycle;Signal;HPM_P1;HPM_P2
2021/05/03 00:01:17;;;;;;;0.82;0.80;;;6.30;69.40;;;;;;5035500;28;20045;-72
2021/05/03 00:03:42;;;;;;;0.50;0.50;;;6.30;69.50;;;;;;5035684;28;20112;-71
2021/05/03 00:06:08;;;;;;;0.65;0.65;;;6.30;69.60;;;;;;5035443;28;20021;-71
2021/05/03 00:08:33;;;;;;;0.40;0.40;;;6.30;69.60;;;;;;5034985;28;20029;-72
2021/05/03 00:10:59;;;;;;;0.60;0.60;;;6.20;69.60;;;;;;5035442;28;20025;-72
2021/05/03 00:13:26;;;;;;;0.60;0.60;;;6.20;69.60;;;;;;5035388;28;20496;-72
2021/05/03 00:15:52;;;;;;;0.60;0.60;;;6.20;69.60;;;;;;5035301;28;20063;-71
2021/05/03 00:18:18;;;;;;;0.80;0.80;;;6.20;69.70;;;;;;5035160;28;20030;-74
2021/05/03 00:20:44;;;;;;;0.40;0.40;;;6.20;69.70;;;;;;5035371;28;20029;-74
2021/05/03 00:23:10;;;;;;;0.55;0.55;;;6.10;69.70;;;;;;5034746;28;20534;-74
2021/05/03 00:25:35;;;;;;;0.68;0.68;;;6.10;69.70;;;;;;5035125;28;20021;-72
2021/05/03 00:28:01;;;;;;;1.02;0.90;;;6.10;69.80;;;;;;5035111;28;20025;-72
2021/05/03 00:30:26;;;;;;;0.85;0.77;;;6.10;69.80;;;;;;5034960;28;20030;-72
2021/05/03 00:32:52;;;;;;;0.40;0.40;;;6.00;69.90;;;;;;5017273;28;20032;-72
2021/05/03 00:35:18;;;;;;;0.60;0.60;;;6.00;70.00;;;;;;5035005;28;20022;-72
2021/05/03 00:37:43;;;;;;;0.43;0.43;;;5.80;70.10;;;;;;5034993;28;20037;-72
2021/05/03 00:40:10;;;;;;;0.65;0.65;;;5.80;70.20;;;;;;5034705;28;20038;-72
2021/05/03 00:42:36;;;;;;;0.40;0.40;;;5.70;70.30;;;;;;5034898;28;20026;-72
2021/05/03 00:45:07;;;;;;;0.38;0.38;;;5.70;70.40;;;;;;5034984;28;20030;-73
2021/05/03 00:47:33;;;;;;;0.50;0.50;;;5.70;70.50;;;;;;5034893;28;20382;-72
2021/05/03 00:49:59;;;;;;;0.50;0.50;;;5.70;70.50;;;;;;5034410;28;20022;-72
2021/05/03 00:52:25;;;;;;;0.30;0.30;;;5.60;70.40;;;;;;5034459;28;20022;-72
2021/05/03 00:54:50;;;;;;;0.50;0.50;;;5.60;70.50;;;;;;5034529;28;20021;-72
2021/05/03 00:57:16;;;;;;;0.60;0.60;;;5.50;70.50;;;;;;5016852;28;20124;-72
2021/05/03 00:59:41;;;;;;;0.65;0.65;;;5.50;70.60;;;;;;5034402;28;20105;-72
2021/05/03 01:02:07;;;;;;;0.50;0.50;;;5.50;70.70;;;;;;5016929;28;20037;-72
2021/05/03 01:04:32;;;;;;;0.65;0.65;;;5.50;70.80;;;;;;5034049;28;20075;-72
2021/05/03 01:06:58;;;;;;;0.50;0.50;;;5.50;70.80;;;;;;5034371;28;20032;-72
2021/05/03 01:09:24;;;;;;;0.47;0.45;;;5.50;70.90;;;;;;5034510;28;20018;-72
2021/05/03 01:11:49;;;;;;;0.50;0.50;;;5.40;70.80;;;;;;5034468;28;20503;-72
2021/05/03 01:14:15;;;;;;;0.47;0.47;;;5.40;70.80;;;;;;5016510;28;20036;-72
2021/05/03 01:16:40;;;;;;;0.50;0.50;;;5.40;70.80;;;;;;5034329;28;20382;-72
2021/05/03 01:19:06;;;;;;;0.82;0.75;;;5.40;70.80;;;;;;5033912;28;20037;-72
2021/05/03 01:21:31;;;;;;;0.55;0.40;;;5.40;70.80;;;;;;5034072;28;20030;-72
2021/05/03 01:23:57;;;;;;;0.65;0.65;;;5.40;70.90;;;;;;5034199;28;20026;-72
2021/05/03 01:26:22;;;;;;;0.55;0.55;;;5.30;70.90;;;;;;5034149;28;20033;-72
2021/05/03 01:28:49;;;;;;;0.40;0.40;;;5.30;71.00;;;;;;5034108;28;20024;-72
2021/05/03 01:31:15;;;;;;;0.63;0.63;;;5.30;71.10;;;;;;5034180;28;20029;-72
2021/05/03 01:33:41;;;;;;;0.40;0.40;;;5.30;71.10;;;;;;5033514;28;20021;-72
2021/05/03 01:36:07;;;;;;;0.50;0.50;;;5.30;71.10;;;;;;5033791;28;20025;-72
2021/05/03 01:38:32;;;;;;;0.60;0.60;;;5.20;71.10;;;;;;5033668;28;20064;-72
2021/05/03 01:40:58;;;;;;;0.52;0.52;;;5.20;71.30;;;;;;5033578;28;20049;-72
2021/05/03 01:43:25;;;;;;;0.50;0.50;;;5.20;71.30;;;;;;5033768;28;20104;-72
2021/05/03 01:45:54;;;;;;;1.00;0.70;;;5.10;71.30;;;;;;5033654;28;20378;-73
2021/05/03 01:48:23;;;;;;;0.73;0.60;;;5.20;71.40;;;;;;5033296;28;20026;-72
2021/05/03 01:50:49;;;;;;;0.40;0.40;;;5.10;71.40;;;;;;5033492;28;20025;-72
2021/05/03 01:53:16;;;;;;;0.57;0.57;;;5.10;71.40;;;;;;5033638;28;20036;-72
2021/05/03 01:55:43;;;;;;;0.47;0.47;;;5.10;71.40;;;;;;5033499;28;20033;-72
2021/05/03 01:58:09;;;;;;;0.52;0.52;;;5.10;71.50;;;;;;5033625;28;20033;-72
2021/05/03 02:00:36;;;;;;;0.65;0.60;;;5.00;71.50;;;;;;5015747;28;20013;-72
2021/05/03 02:03:02;;;;;;;0.60;0.60;;;5.00;71.50;;;;;;5032898;28;20390;-72
2021/05/03 02:05:28;;;;;;;0.57;0.57;;;5.00;71.60;;;;;;5033477;28;20048;-72
2021/05/03 02:08:02;;;;;;;0.57;0.57;;;4.90;71.60;;;;;;5015425;28;20036;-72
2021/05/03 02:10:29;;;;;;;0.60;0.50;;;4.90;71.70;;;;;;5033267;28;20029;-72
2021/05/03 02:12:57;;;;;;;0.95;0.50;;;4.90;71.70;;;;;;5033401;28;20101;-72
2021/05/03 02:15:23;;;;;;;0.60;0.60;;;4.90;71.80;;;;;;5033325;28;20018;-72
2021/05/03 02:17:49;;;;;;;0.40;0.40;;;4.90;71.90;;;;;;5032589;28;20128;-72
2021/05/03 02:20:16;;;;;;;0.45;0.43;;;4.80;71.90;;;;;;5033457;28;20116;-72
2021/05/03 02:22:43;;;;;;;0.63;0.63;;;4.80;71.90;;;;;;5033139;28;20018;-72
2021/05/03 02:25:09;;;;;;;0.45;0.45;;;4.80;71.90;;;;;;5033109;28;20163;-72
2021/05/03 02:27:34;;;;;;;0.60;0.60;;;4.80;71.90;;;;;;5033169;28;20034;-72
2021/05/03 02:30:00;;;;;;;0.60;0.60;;;4.80;71.90;;;;;;5015366;28;20020;-72
2021/05/03 02:32:25;;;;;;;0.55;0.55;;;4.80;71.90;;;;;;5032647;28;20021;-72
2021/05/03 02:34:51;;;;;;;0.63;0.63;;;4.80;71.90;;;;;;5032914;28;20386;-72
2021/05/03 02:37:17;;;;;;;0.70;0.70;;;4.80;71.90;;;;;;5032932;28;20429;-72
2021/05/03 02:39:42;;;;;;;1.48;0.80;;;4.80;72.00;;;;;;5015303;28;20087;-72
2021/05/03 02:42:10;;;;;;;0.60;0.60;;;4.80;72.00;;;;;;5033024;28;20025;-72
2021/05/03 02:44:39;;;;;;;0.50;0.50;;;4.80;72.10;;;;;;5032988;28;20025;-72
2021/05/03 02:47:08;;;;;;;0.50;0.50;;;4.80;72.10;;;;;;5032838;28;20017;-72
2021/05/03 02:49:34;;;;;;;0.50;0.50;;;4.80;72.10;;;;;;5032926;28;20040;-72
2021/05/03 02:52:00;;;;;;;0.50;0.50;;;4.80;72.10;;;;;;5033008;28;20105;-72
2021/05/03 02:54:26;;;;;;;0.40;0.40;;;4.90;72.20;;;;;;5033028;28;20053;-72
2021/05/03 02:56:52;;;;;;;1.05;1.00;;;4.90;72.30;;;;;;5032651;28;20095;-72
2021/05/03 02:59:17;;;;;;;0.82;0.82;;;4.90;72.30;;;;;;5015164;28;20029;-72
2021/05/03 03:01:43;;;;;;;1.08;0.93;;;4.90;72.30;;;;;;5032484;28;20025;-72
2021/05/03 03:04:09;;;;;;;0.85;0.70;;;4.90;72.40;;;;;;5032883;28;20071;-72
2021/05/03 03:06:34;;;;;;;0.80;0.80;;;4.90;72.40;;;;;;5015150;28;20026;-72
2021/05/03 03:09:00;;;;;;;0.90;0.90;;;4.90;72.40;;;;;;5032755;28;20072;-72
2021/05/03 03:11:25;;;;;;;0.68;0.68;;;4.90;72.40;;;;;;5032735;28;20514;-72
2021/05/03 03:13:51;;;;;;;0.57;0.57;;;4.90;72.50;;;;;;5015106;28;20021;-71
2021/05/03 03:16:22;;;;;;;1.50;1.02;;;4.90;72.50;;;;;;5032501;28;20494;-72
2021/05/03 03:18:48;;;;;;;0.88;0.77;;;4.90;72.50;;;;;;5033229;28;20120;-71
2021/05/03 03:21:15;;;;;;;1.52;1.00;;;4.90;72.70;;;;;;5036353;28;20020;-71
2021/05/03 03:23:40;;;;;;;1.40;0.75;;;4.90;72.70;;;;;;5036365;28;20032;-72
2021/05/03 03:26:06;;;;;;;1.42;1.10;;;4.90;72.80;;;;;;5036422;28;20026;-72
2021/05/03 03:28:31;;;;;;;0.95;0.90;;;4.90;72.90;;;;;;5035504;28;20052;-72
2021/05/03 03:30:57;;;;;;;0.95;0.90;;;4.90;73.10;;;;;;5017030;28;20029;-72
2021/05/03 03:33:22;;;;;;;1.10;1.10;;;4.90;73.20;;;;;;5034779;28;20052;-72
2021/05/03 03:35:48;;;;;;;1.63;1.50;;;4.90;73.30;;;;;;5036316;28;20493;-72
2021/05/03 03:38:13;;;;;;;1.50;1.10;;;4.80;73.40;;;;;;5035763;28;20029;-72
2021/05/03 03:40:39;;;;;;;1.17;1.08;;;4.80;73.40;;;;;;5035808;28;20146;-72
2021/05/03 03:43:04;;;;;;;1.27;1.02;;;4.80;73.50;;;;;;5036067;28;20499;-72
2021/05/03 03:45:30;;;;;;;0.93;0.90;;;4.80;73.50;;;;;;5035476;28;20083;-72
2021/05/03 03:47:55;;;;;;;1.17;1.05;;;4.80;73.60;;;;;;5036145;28;20025;-72
2021/05/03 03:50:21;;;;;;;0.98;0.90;;;4.80;73.50;;;;;;5035810;28;20032;-72
2021/05/03 03:52:46;;;;;;;1.00;1.00;;;4.90;73.50;;;;;;5035699;28;20032;-72
2021/05/03 03:55:12;;;;;;;1.15;1.05;;;4.90;73.50;;;;;;5035790;28;20111;-72
2021/05/03 03:57:38;;;;;;;1.27;1.08;;;4.90;73.50;;;;;;5035688;28;20041;-72
2021/05/03 04:00:05;;;;;;;1.02;0.93;;;4.90;73.60;;;;;;5035285;28;20060;-72
2021/05/03 04:02:32;;;;;;;1.05;0.95;;;4.90;73.60;;;;;;5035772;28;20045;-72
2021/05/03 04:07:37;;;;;;;1.08;1.02;;;4.90;73.60;;;;;;5035779;28;20119;-71
2021/05/03 04:10:14;;;;;;;1.40;1.27;;;4.90;73.50;;;;;;5035408;28;20025;-73
2021/05/03 04:26:16;;;;;;;2.22;1.27;;;5.00;73.90;;;;;;5035209;28;20087;-72
2021/05/03 04:28:42;;;;;;;1.40;1.30;;;5.00;74.00;;;;;;5034822;28;20040;-71
2021/05/03 04:31:08;;;;;;;1.33;1.25;;;4.90;74.00;;;;;;5034541;28;20036;-72
2021/05/03 04:33:34;;;;;;;2.70;1.83;;;4.90;74.10;;;;;;5035101;28;20021;-72
2021/05/03 04:36:00;;;;;;;1.85;1.40;;;4.90;74.10;;;;;;5035153;28;20021;-71
2021/05/03 04:38:26;;;;;;;1.40;1.30;;;4.90;74.10;;;;;;5034821;28;20485;-72
2021/05/03 04:40:52;;;;;;;1.48;1.08;;;5.00;74.20;;;;;;5017023;28;20045;-72
2021/05/03 04:43:19;;;;;;;3.40;1.88;;;5.00;74.30;;;;;;5034576;28;20489;-71
2021/05/03 04:45:44;;;;;;;2.53;2.25;;;5.00;74.10;;;;;;5034877;28;20053;-71
2021/05/03 04:48:10;;;;;;;2.13;1.92;;;5.10;74.10;;;;;;5034837;28;20528;-71
2021/05/03 04:50:36;;;;;;;2.20;1.60;;;5.10;74.10;;;;;;5034831;28;20029;-71
2021/05/03 04:53:01;;;;;;;1.63;1.52;;;5.20;74.00;;;;;;5034851;28;20116;-71
2021/05/03 04:55:27;;;;;;;2.38;1.65;;;5.20;73.90;;;;;;5016853;28;20025;-71
2021/05/03 04:57:53;;;;;;;2.05;1.80;;;5.30;73.90;;;;;;5034240;28;20045;-71
2021/05/03 05:00:19;;;;;;;2.55;1.75;;;5.30;73.90;;;;;;5034632;28;20014;-71
2021/05/03 05:02:44;;;;;;;2.30;2.10;;;5.30;73.90;;;;;;5034460;28;20029;-71
2021/05/03 05:05:11;;;;;;;2.63;1.52;;;5.30;73.90;;;;;;5034401;28;20022;-71
2021/05/03 05:07:38;;;;;;;2.47;1.95;;;5.40;74.00;;;;;;5034723;28;20030;-71
2021/05/03 05:10:05;;;;;;;2.08;1.83;;;5.40;73.90;;;;;;5034525;28;20018;-71
2021/05/03 05:12:31;;;;;;;4.00;1.95;;;5.50;73.90;;;;;;5033766;28;20060;-71
2021/05/03 05:14:56;;;;;;;2.25;2.00;;;5.50;73.80;;;;;;5034162;28;20029;-70
2021/05/03 05:17:22;;;;;;;3.10;2.20;;;5.60;73.90;;;;;;5034108;28;20021;-71
2021/05/03 05:19:49;;;;;;;2.60;2.00;;;5.60;73.90;;;;;;5034255;28;20389;-70
2021/05/03 05:22:15;;;;;;;3.38;2.13;;;5.60;74.00;;;;;;5034237;28;20014;-70
2021/05/03 05:24:41;;;;;;;2.65;2.00;;;5.60;74.00;;;;;;5034045;28;20104;-70
2021/05/03 05:27:07;;;;;;;3.58;2.42;;;5.60;73.90;;;;;;5033665;28;20569;-70
2021/05/03 05:29:32;;;;;;;4.10;2.65;;;5.70;74.00;;;;;;5034027;28;20029;-71
2021/05/03 05:31:58;;;;;;;2.70;2.42;;;5.70;74.00;;;;;;5033982;28;20021;-70
2021/05/03 05:34:23;;;;;;;3.17;2.20;;;5.70;73.90;;;;;;5034106;28;20494;-71
2021/05/03 05:36:49;;;;;;;2.55;2.00;;;5.80;74.00;;;;;;5033902;28;20032;-72
2021/05/03 05:39:14;;;;;;;2.75;2.10;;;5.80;74.00;;;;;;5033808;28;20596;-73
2021/05/03 05:41:43;;;;;;;2.58;2.38;;;5.80;73.90;;;;;;5032260;28;20064;-74
2021/05/03 05:44:09;;;;;;;3.38;2.22;;;5.90;73.90;;;;;;5033714;28;20108;-73
2021/05/03 05:46:36;;;;;;;1.77;1.52;;;6.00;73.70;;;;;;5033483;28;20490;-72
2021/05/03 05:49:02;;;;;;;2.97;2.08;;;6.10;73.60;;;;;;5033555;28;20049;-72
2021/05/03 05:51:27;;;;;;;2.38;2.10;;;6.10;73.50;;;;;;5033492;28;20382;-71
2021/05/03 05:53:53;;;;;;;3.58;1.98;;;6.20;73.50;;;;;;5033533;28;20021;-72
2021/05/03 05:56:19;;;;;;;2.15;1.80;;;6.20;73.60;;;;;;5032861;28;20014;-72
2021/05/03 05:58:45;;;;;;;3.85;2.05;;;6.30;73.50;;;;;;5033284;28;20052;-72
2021/05/03 06:01:10;;;;;;;2.50;1.90;;;6.30;73.50;;;;;;5033300;28;20367;-72
2021/05/03 06:03:36;;;;;;;2.75;2.00;;;6.30;73.50;;;;;;5033290;28;20116;-71
2021/05/03 06:06:01;;;;;;;3.63;2.40;;;6.30;73.50;;;;;;5033303;28;20048;-72
2021/05/03 06:08:27;;;;;;;2.50;1.90;;;6.30;73.50;;;;;;5015806;28;20032;-72
2021/05/03 06:10:54;;;;;;;2.08;1.85;;;6.30;73.70;;;;;;5032695;28;20025;-73
2021/05/03 06:13:20;;;;;;;2.55;2.03;;;6.40;73.70;;;;;;5033151;28;20025;-72
2021/05/03 06:15:46;;;;;;;2.45;1.98;;;6.40;73.70;;;;;;5015503;28;20025;-72
2021/05/03 06:18:12;;;;;;;1.92;1.80;;;6.40;73.70;;;;;;5032968;28;20037;-73
2021/05/03 06:20:38;;;;;;;2.40;2.13;;;6.40;73.60;;;;;;5033096;28;20022;-72
2021/05/03 06:23:06;;;;;;;3.95;1.92;;;6.50;73.60;;;;;;5032963;28;20421;-72
2021/05/03 06:25:33;;;;;;;2.30;2.10;;;6.50;73.50;;;;;;5032478;28;20378;-71
2021/05/03 06:27:59;;;;;;;2.60;1.95;;;6.60;73.50;;;;;;5033038;28;20466;-72
2021/05/03 06:30:25;;;;;;;1.58;1.35;;;6.60;74.00;;;;;;5033085;28;20051;-72
2021/05/03 06:32:52;;;;;;;3.55;2.53;;;6.70;73.30;;;;;;5032686;28;20017;-72
2021/05/03 06:35:18;;;;;;;2.40;1.92;;;6.80;73.20;;;;;;5015333;28;20075;-72
2021/05/03 06:37:44;;;;;;;2.20;1.67;;;6.90;73.00;;;;;;5032967;28;20438;-71
2021/05/03 06:40:10;;;;;;;2.25;1.90;;;6.90;73.00;;;;;;5032230;28;20123;-71
2021/05/03 06:42:36;;;;;;;2.90;2.40;;;7.00;72.90;;;;;;5032874;28;20021;-72
2021/05/03 06:45:04;;;;;;;2.28;1.65;;;7.10;72.90;;;;;;5015129;28;20489;-72
2021/05/03 06:47:29;;;;;;;2.58;1.88;;;7.10;72.70;;;;;;5032775;28;20026;-71
2021/05/03 06:49:55;;;;;;;2.58;1.73;;;7.30;72.60;;;;;;5032731;28;20024;-71
2021/05/03 06:52:21;;;;;;;3.00;2.03;;;7.40;72.50;;;;;;5026877;28;20022;-70
2021/05/03 06:54:46;;;;;;;2.45;2.00;;;7.50;72.20;;;;;;5014120;28;20128;-73
2021/05/03 06:57:12;;;;;;;2.03;1.75;;;7.60;72.10;;;;;;5014216;28;20139;-72
2021/05/03 06:59:38;;;;;;;3.13;2.20;;;7.70;72.10;;;;;;5013954;28;20033;-72
2021/05/03 07:02:03;;;;;;;2.70;1.80;;;7.80;71.90;;;;;;5014246;28;20128;-73
2021/05/03 07:04:29;;;;;;;2.92;2.38;;;7.80;71.80;;;;;;5013832;28;20030;-72
2021/05/03 07:06:54;;;;;;;2.58;2.00;;;7.90;71.80;;;;;;5013564;28;20026;-73
2021/05/03 07:09:20;;;;;;;2.63;2.10;;;7.90;71.70;;;;;;4996262;28;20026;-73
2021/05/03 07:11:46;;;;;;;2.20;1.80;;;8.00;71.80;;;;;;5013965;28;20121;-73
2021/05/03 07:14:11;;;;;;;2.25;1.80;;;8.10;71.80;;;;;;5014329;28;20077;-73
2021/05/03 07:16:37;;;;;;;2.45;2.00;;;8.20;71.70;;;;;;5023312;28;20037;-73
2021/05/03 07:19:03;;;;;;;1.73;1.60;;;8.30;71.40;;;;;;5034318;28;20083;-73
2021/05/03 07:21:29;;;;;;;2.72;1.83;;;8.30;71.40;;;;;;5034563;28;20026;-73
2021/05/03 07:23:55;;;;;;;2.38;1.92;;;8.40;71.30;;;;;;5036191;28;20524;-73
2021/05/03 07:26:20;;;;;;;2.35;1.80;;;8.50;71.10;;;;;;5035790;28;20022;-73
2021/05/03 07:28:46;;;;;;;1.60;1.40;;;8.50;71.10;;;;;;5018676;28;20030;-72
2021/05/03 07:31:12;;;;;;;2.00;1.80;;;8.50;71.20;;;;;;5018348;28;20026;-73
2021/05/03 07:33:37;;;;;;;2.50;2.20;;;8.50;71.10;;;;;;5036102;28;20053;-72
2021/05/03 07:36:03;;;;;;;1.70;1.58;;;8.60;71.30;;;;;;5018007;28;20033;-73
2021/05/03 07:38:30;;;;;;;2.40;1.80;;;8.60;71.20;;;;;;5035949;28;20034;-73
2021/05/03 07:40:56;;;;;;;2.03;1.60;;;8.70;71.10;;;;;;5035646;28;20050;-73
2021/05/03 07:43:22;;;;;;;2.20;2.00;;;8.80;71.00;;;;;;5018207;28;20026;-73
2021/05/03 07:45:47;;;;;;;2.97;2.00;;;8.90;70.80;;;;;;5036023;28;20033;-73
2021/05/03 07:48:13;;;;;;;2.38;2.17;;;9.00;70.70;;;;;;5035979;28;20013;-72
2021/05/03 07:50:38;;;;;;;3.50;2.33;;;9.10;70.60;;;;;;5035467;28;20029;-73
2021/05/03 07:53:05;;;;;;;2.22;1.73;;;9.20;70.50;;;;;;5035656;28;20022;-74
2021/05/03 07:55:31;;;;;;;2.42;2.22;;;9.30;70.30;;;;;;5018081;28;20470;-73
2021/05/03 07:57:59;;;;;;;2.70;2.03;;;9.50;70.20;;;;;;5035721;28;20039;-73
2021/05/03 08:00:24;;;;;;;2.47;1.88;;;9.60;70.00;;;;;;5033307;28;20037;-73
2021/05/03 08:02:50;;;;;;;2.67;2.30;;;9.80;70.00;;;;;;5015762;28;20022;-72
2021/05/03 08:05:15;;;;;;;3.95;2.60;;;10.00;69.90;;;;;;5014584;28;20061;-71
2021/05/03 08:07:41;;;;;;;3.15;2.30;;;10.10;69.70;;;;;;5015811;28;20034;-72
2021/05/03 08:10:07;;;;;;;5.93;2.97;;;10.20;69.70;;;;;;5015839;28;20344;-72
2021/05/03 08:12:33;;;;;;;3.30;2.75;;;10.30;69.60;;;;;;5015595;28;20076;-71
2021/05/03 08:15:09;;;;;;;6.05;3.65;;;10.30;69.50;;;;;;5015568;28;20418;-71
2021/05/03 08:17:35;;;;;;;3.60;2.55;;;10.40;69.60;;;;;;5015636;28;20025;-71
2021/05/03 08:20:00;;;;;;;6.72;4.80;;;10.60;69.50;;;;;;5015246;28;20390;-71
2021/05/03 08:22:25;;;;;;;6.85;4.38;;;10.70;69.20;;;;;;5014263;28;20376;-71
2021/05/03 08:24:51;;;;;;;4.82;3.88;;;10.70;69.30;;;;;;5015338;28;20026;-71
2021/05/03 08:27:16;;;;;;;6.05;4.03;;;10.70;69.40;;;;;;5015551;28;20026;-71
2021/05/03 08:29:43;;;;;;;6.25;4.20;;;10.70;69.50;;;;;;5014192;28;20022;-72
2021/05/03 08:32:09;;;;;;;5.65;4.38;;;10.90;69.50;;;;;;5015372;28;20022;-71
2021/05/03 08:34:35;;;;;;;7.65;4.75;;;11.00;69.30;;;;;;5014803;28;20501;-72
2021/05/03 08:37:00;;;;;;;7.93;4.57;;;11.10;69.30;;;;;;5015280;28;20018;-71
2021/05/03 08:39:26;;;;;;;7.03;4.90;;;11.20;69.30;;;;;;5015501;28;20390;-72
2021/05/03 08:41:56;;;;;;;6.57;4.88;;;11.30;69.00;;;;;;5014922;28;20087;-71
2021/05/03 08:44:23;;;;;;;5.60;4.18;;;11.30;69.00;;;;;;5015563;28;20478;-71
2021/05/03 08:46:48;;;;;;;6.18;4.53;;;11.30;69.00;;;;;;5015306;28;20073;-71
2021/05/03 08:49:19;;;;;;;6.70;5.50;;;11.40;69.10;;;;;;5014588;28;20026;-71
2021/05/03 08:56:37;;;;;;;5.28;4.07;;;11.50;68.90;;;;;;5014923;28;20038;-71
2021/05/03 08:59:05;;;;;;;5.78;4.57;;;11.70;68.80;;;;;;5014833;28;20042;-71
2021/05/03 09:01:30;;;;;;;8.73;6.22;;;11.80;68.50;;;;;;5014881;28;20018;-71
2021/05/03 09:03:58;;;;;;;6.80;5.18;;;11.80;68.40;;;;;;5014395;28;20466;-71
2021/05/03 09:06:23;;;;;;;6.65;5.55;;;11.90;68.50;;;;;;5013248;28;20080;-71
2021/05/03 09:09:13;;;;;;;6.55;4.95;;;11.90;68.20;;;;;;5015204;28;20026;-72
2021/05/03 09:11:56;;;;;;;5.43;4.65;;;12.00;68.30;;;;;;5014730;28;20080;-71
2021/05/03 09:14:22;;;;;;;7.20;5.15;;;12.00;68.30;;;;;;5014585;28;20048;-71
2021/05/03 09:16:47;;;;;;;6.45;5.13;;;12.10;68.20;;;;;;5014437;28;20101;-71
2021/05/03 09:19:13;;;;;;;5.95;4.85;;;12.10;68.10;;;;;;5013880;28;20041;-71
2021/05/03 09:21:40;;;;;;;5.68;4.35;;;12.30;68.10;;;;;;5014430;28;20029;-71
2021/05/03 09:24:09;;;;;;;7.53;6.07;;;12.40;67.80;;;;;;5014340;28;20037;-71
2021/05/03 09:26:39;;;;;;;6.35;4.70;;;12.50;67.30;;;;;;5014282;28;20080;-72
2021/05/03 09:29:28;;;;;;;6.15;4.20;;;12.50;67.30;;;;;;5014265;28;20486;-71
2021/05/03 09:32:01;;;;;;;5.72;5.05;;;12.60;67.40;;;;;;4996077;28;20026;-71
2021/05/03 09:34:35;;;;;;;5.55;4.95;;;12.70;67.10;;;;;;5014236;28;20060;-71
2021/05/03 09:37:20;;;;;;;5.38;4.25;;;12.80;67.10;;;;;;5014461;28;20430;-71
2021/05/03 09:39:57;;;;;;;5.68;4.43;;;12.80;67.10;;;;;;5013828;28;20395;-71
2021/05/03 09:42:23;;;;;;;7.32;5.65;;;12.90;67.00;;;;;;5014085;28;20386;-71
2021/05/03 09:45:06;;;;;;;6.95;5.63;;;13.00;66.70;;;;;;5014071;28;20018;-71
2021/05/03 09:47:33;;;;;;;6.35;4.45;;;13.10;66.60;;;;;;5013469;28;20022;-71
2021/05/03 09:50:09;;;;;;;6.13;4.82;;;13.10;66.80;;;;;;5014069;28;20554;-71
2021/05/03 09:52:35;;;;;;;6.07;4.72;;;13.20;66.40;;;;;;5013995;28;20056;-71
2021/05/03 09:55:00;;;;;;;4.93;4.13;;;13.40;66.20;;;;;;5013799;28;20022;-71
2021/05/03 09:57:26;;;;;;;5.82;4.82;;;13.60;65.90;;;;;;5013855;28;20124;-71
2021/05/03 09:59:56;;;;;;;5.78;4.22;;;13.70;65.40;;;;;;5013646;28;20033;-71
2021/05/03 10:02:33;;;;;;;6.07;4.00;;;13.80;65.50;;;;;;5013406;28;20025;-71
2021/05/03 10:05:09;;;;;;;5.32;4.72;;;13.90;65.40;;;;;;5013799;28;20017;-71
2021/05/03 10:07:38;;;;;;;5.38;3.95;;;13.90;65.20;;;;;;5013598;28;20026;-72
2021/05/03 10:12:35;;;;;;;5.25;3.58;;;13.90;65.40;;;;;;5013683;28;20051;-73
2021/05/03 10:15:06;;;;;;;6.53;4.97;;;13.90;65.50;;;;;;5013841;28;20025;-71
2021/05/03 10:17:32;;;;;;;6.93;4.20;;;13.90;64.90;;;;;;5013078;28;20115;-71
2021/05/03 10:20:00;;;;;;;5.10;4.25;;;13.90;65.10;;;;;;5013520;28;20061;-71
2021/05/03 10:22:27;;;;;;;4.68;3.67;;;14.10;64.90;;;;;;4995852;28;20022;-71
2021/05/03 10:24:56;;;;;;;6.13;4.80;;;14.30;64.70;;;;;;5013328;28;20030;-71
2021/05/03 10:27:23;;;;;;;6.47;3.80;;;14.50;64.00;;;;;;5013110;28;20044;-71
2021/05/03 10:30:03;;;;;;;5.32;4.47;;;14.40;64.10;;;;;;5013120;28;20026;-72
2021/05/03 10:32:28;;;;;;;5.03;3.50;;;14.30;64.10;;;;;;5012140;28;20051;-72
2021/05/03 10:34:54;;;;;;;5.15;3.80;;;14.30;64.60;;;;;;5013467;28;20080;-72
2021/05/03 10:37:29;;;;;;;5.43;3.97;;;14.30;64.30;;;;;;5013374;28;20022;-73
2021/05/03 10:39:56;;;;;;;4.20;3.35;;;14.40;64.10;;;;;;5013178;28;20040;-73
2021/05/03 10:42:21;;;;;;;5.40;4.60;;;14.40;64.00;;;;;;5013293;28;20018;-72
2021/05/03 10:45:12;;;;;;;5.35;3.95;;;14.30;63.80;;;;;;5012954;28;20084;-72
2021/05/03 10:47:46;;;;;;;5.85;4.05;;;14.40;63.60;;;;;;5011999;28;20451;-72
2021/05/03 10:50:24;;;;;;;4.80;3.90;;;14.50;63.50;;;;;;5011941;28;20546;-71
2021/05/03 10:52:52;;;;;;;4.47;3.42;;;14.70;63.10;;;;;;5013056;28;20018;-71
2021/05/03 10:55:17;;;;;;;5.05;3.78;;;14.80;63.00;;;;;;5013286;28;20390;-71
2021/05/03 10:57:43;;;;;;;5.32;4.00;;;14.90;62.80;;;;;;5012985;28;20481;-71
2021/05/03 11:00:12;;;;;;;6.40;4.82;;;15.00;62.40;;;;;;5012632;28;20033;-72
2021/05/03 11:02:37;;;;;;;5.50;4.53;;;15.00;62.40;;;;;;5011690;28;20026;-72
2021/05/03 11:05:29;;;;;;;6.07;4.25;;;15.00;62.20;;;;;;5011839;28;20076;-72
2021/05/03 11:08:04;;;;;;;5.20;3.83;;;15.10;62.20;;;;;;4995501;28;20036;-73
2021/05/03 11:11:04;;;;;;;5.60;4.20;;;15.20;62.00;;;;;;5013121;28;20029;-73
2021/05/03 11:13:46;;;;;;;6.00;3.92;;;15.20;61.50;;;;;;5012500;28;20026;-74
2021/05/03 11:16:28;;;;;;;5.30;4.10;;;14.90;61.80;;;;;;5013159;28;20030;-71
2021/05/03 11:18:55;;;;;;;5.93;4.55;;;14.70;62.40;;;;;;5011599;28;20037;-74
2021/05/03 11:21:44;;;;;;;4.85;3.60;;;14.60;62.40;;;;;;5012794;28;20029;-72
2021/05/03 11:24:25;;;;;;;6.07;4.20;;;14.80;62.30;;;;;;4995455;28;20026;-73
2021/05/03 11:27:08;;;;;;;5.00;3.63;;;15.00;61.60;;;;;;4995407;28;20584;-73
2021/05/03 11:29:42;;;;;;;5.43;3.97;;;15.20;61.10;;;;;;5012494;28;20018;-73
2021/05/03 11:32:08;;;;;;;4.10;3.20;;;15.30;60.70;;;;;;5013048;28;20213;-73
2021/05/03 11:34:43;;;;;;;4.88;3.90;;;15.30;60.70;;;;;;5012664;28;20515;-74
2021/05/03 11:37:27;;;;;;;4.45;3.25;;;15.30;60.60;;;;;;5012893;28;20033;-73
2021/05/03 11:45:30;;;;;;;3.58;2.85;;;15.00;61.00;;;;;;4936955;29;20051;-74
2021/05/03 11:47:58;;;;;;;3.35;2.75;;;15.20;60.80;;;;;;4936781;29;20036;-73
2021/05/03 11:50:28;;;;;;;4.90;2.92;;;15.40;60.20;;;;;;4936685;29;20032;-74
2021/05/03 11:52:55;;;;;;;3.90;2.90;;;15.50;60.10;;;;;;4936481;29;20052;-75
2021/05/03 11:55:24;;;;;;;3.72;3.05;;;15.60;59.90;;;;;;4920663;29;20485;-73
2021/05/03 11:57:50;;;;;;;7.32;4.70;;;15.80;59.30;;;;;;4935971;29;20543;-73
2021/05/03 12:00:24;;;;;;;4.63;3.80;;;16.10;58.70;;;;;;4936353;29;20043;-73
2021/05/03 12:03:07;;;;;;;5.40;4.68;;;16.30;57.90;;;;;;4920547;29;20031;-73
2021/05/03 12:05:33;;;;;;;4.80;3.28;;;16.20;57.50;;;;;;4936316;29;20087;-73
2021/05/03 12:08:12;;;;;;;4.60;3.47;;;16.10;58.20;;;;;;4936245;29;20067;-73
2021/05/03 12:10:38;;;;;;;5.32;3.67;;;16.00;58.10;;;;;;4920414;29;20557;-73
2021/05/03 12:13:03;;;;;;;4.95;3.63;;;15.70;58.50;;;;;;4935594;29;20031;-74
2021/05/03 12:15:30;;;;;;;3.53;3.15;;;15.40;58.90;;;;;;4935974;29;20074;-74
2021/05/03 12:18:02;;;;;;;5.65;4.32;;;15.30;59.00;;;;;;4935997;29;20067;-74
2021/05/03 12:20:29;;;;;;;5.35;3.85;;;15.30;58.80;;;;;;5000952;28;20041;-73
2021/05/03 12:23:03;;;;;;;4.82;3.40;;;15.30;58.60;;;;;;5015617;28;20096;-73
2021/05/03 12:25:38;;;;;;;4.00;3.15;;;15.30;58.90;;;;;;5015462;28;20033;-73
2021/05/03 12:28:24;;;;;;;2.90;2.60;;;15.50;58.60;;;;;;4997325;28;20497;-74
2021/05/03 12:30:54;;;;;;;3.90;2.72;;;15.60;58.30;;;;;;5015602;28;20101;-73
2021/05/03 12:33:21;;;;;;;3.05;2.53;;;15.70;58.20;;;;;;5015292;28;20104;-73
2021/05/03 12:35:47;;;;;;;3.42;2.70;;;15.80;58.00;;;;;;5015475;28;20080;-73
2021/05/03 12:38:30;;;;;;;4.70;3.05;;;15.80;57.90;;;;;;5015198;28;20040;-74
2021/05/03 12:40:59;;;;;;;4.20;2.97;;;16.00;57.40;;;;;;5014584;28;20396;-73
2021/05/03 12:43:31;;;;;;;4.63;3.53;;;16.00;57.40;;;;;;5015174;28;20025;-73
2021/05/03 12:54:17;;;;;;;2.75;2.30;;;16.40;57.50;;;;;;5015053;28;20054;-73
2021/05/03 12:57:10;;;;;;;5.43;3.55;;;17.40;56.20;;;;;;5014491;28;20033;-74
2021/05/03 13:02:22;;;;;;;3.70;3.22;;;18.20;54.30;;;;;;5015025;28;20061;-74
2021/05/03 13:04:53;;;;;;;4.07;3.50;;;17.80;55.20;;;;;;5014865;28;20029;-73
2021/05/03 13:24:23;;;;;;;4.13;3.25;;;17.40;55.80;;;;;;5014795;28;20092;-73
2021/05/03 13:29:42;;;;;;;4.40;3.17;;;17.70;55.20;;;;;;5014701;28;20029;-73
2021/05/03 13:32:11;;;;;;;3.83;3.30;;;17.70;54.80;;;;;;5014233;28;20040;-73
2021/05/03 13:34:36;;;;;;;3.43;3.07;;;17.60;54.80;;;;;;4996628;28;20030;-74
2021/05/03 13:37:02;;;;;;;3.63;3.17;;;17.50;54.80;;;;;;5014148;28;20378;-74
2021/05/03 13:39:28;;;;;;;4.35;3.63;;;17.20;54.80;;;;;;4996001;28;20099;-73
2021/05/03 13:41:53;;;;;;;3.95;3.28;;;16.80;54.90;;;;;;5013896;28;20124;-74
2021/05/03 13:44:19;;;;;;;4.57;3.08;;;16.60;55.50;;;;;;5014135;28;20058;-74
2021/05/03 13:46:46;;;;;;;2.70;2.50;;;16.50;55.80;;;;;;5012768;28;20026;-74
2021/05/03 13:49:12;;;;;;;3.63;2.75;;;16.60;55.60;;;;;;4996344;28;20025;-73
2021/05/03 13:51:38;;;;;;;3.38;2.72;;;16.70;55.10;;;;;;4996321;28;20080;-74
2021/05/03 13:54:04;;;;;;;3.80;3.10;;;16.80;54.70;;;;;;5013439;28;20430;-73
2021/05/03 13:56:30;;;;;;;3.30;2.53;;;16.70;54.70;;;;;;5011336;28;20033;-74